Main page
METAR-TAF:

METAR-TAF

Airports :

Vijayawada International Airport

Vijayawada, India

latitude: 16-31-44N, longitude: 80-47-45E, elevation: 25 m

Current weather observation

The report was made 5 hours and 3 minutes ago, at 16:30 UTC
Calm wind
Temperature 25°C
Humidity 94%
Pressure 1012 hPa
Visibility: 2000 m
Scattered clouds at a height of 2000 ft
mist

METAR: VOBZ 011630Z 00000KT 2000 BR SCT020 25/24 Q1012 NOSIG

Time: 03:03 (21:33 UTC)

Forecast

The report was made 4 hours and 33 minutes ago, at 17:00 UTC
Forecast valid from 01 at 18 UTC to 02 at 03 UTC
Wind 7 kt from the East/Northeast
Visibility: 3000 m
Few clouds at a height of 2000 ft
haze
Temporary
from 01 at 23 UTC to 02 at 03 UTC
Wind 3 kt from variable directions
Visibility: 1500 m
Few clouds at a height of 2000 ft
mist

TAF: VOBZ 011700Z 0118/0203 06007KT 3000 HZ FEW020 TEMPO 0123/0203 VRB03KT 1500 BR FEW020

Weather observations and forecasts of more than 4000 airports (METAR and TAF reports).

The available stations are represented by yellow and red dots on the map.

Hover mouse over dot to see the name of the station.

Then click to see weather observations and forecasts.

To change the map : click on the green buttons with a black cross to zoom in, on the green button with a dash to zoom out, or on the green arrows for adjacent maps.


METAR-TAF: